sensor_id;sensor_type;location;lat;lon;timestamp;P1;durP1;ratioP1;P2;durP2;ratioP2
78968;SDS011;68369;51.050;17.018;2023-05-18T00:03:14;8.20;;;2.50;;
78968;SDS011;68369;51.050;17.018;2023-05-18T00:06:01;8.30;;;2.60;;
78968;SDS011;68369;51.050;17.018;2023-05-18T00:08:48;10.20;;;3.00;;
78968;SDS011;68369;51.050;17.018;2023-05-18T00:11:34;12.90;;;3.10;;
78968;SDS011;68369;51.050;17.018;2023-05-18T00:14:27;11.60;;;2.70;;
78968;SDS011;68369;51.050;17.018;2023-05-18T00:17:14;9.30;;;2.70;;
78968;SDS011;68369;51.050;17.018;2023-05-18T00:20:02;12.90;;;2.90;;
78968;SDS011;68369;51.050;17.018;2023-05-18T00:22:53;8.60;;;2.50;;
78968;SDS011;68369;51.050;17.018;2023-05-18T00:25:40;9.30;;;3.50;;
78968;SDS011;68369;51.050;17.018;2023-05-18T00:28:47;9.70;;;2.60;;
78968;SDS011;68369;51.050;17.018;2023-05-18T00:31:34;7.40;;;2.80;;
78968;SDS011;68369;51.050;17.018;2023-05-18T00:34:25;9.10;;;3.30;;
78968;SDS011;68369;51.050;17.018;2023-05-18T00:37:11;6.30;;;2.50;;
78968;SDS011;68369;51.050;17.018;2023-05-18T00:39:57;9.40;;;3.50;;
78968;SDS011;68369;51.050;17.018;2023-05-18T00:42:42;10.90;;;2.90;;
78968;SDS011;68369;51.050;17.018;2023-05-18T00:45:30;9.60;;;2.80;;
78968;SDS011;68369;51.050;17.018;2023-05-18T00:48:17;10.00;;;3.20;;
78968;SDS011;68369;51.050;17.018;2023-05-18T00:51:08;9.10;;;3.20;;
78968;SDS011;68369;51.050;17.018;2023-05-18T00:53:58;8.50;;;3.10;;
78968;SDS011;68369;51.050;17.018;2023-05-18T00:56:48;9.90;;;3.00;;
78968;SDS011;68369;51.050;17.018;2023-05-18T00:59:39;9.70;;;2.80;;
78968;SDS011;68369;51.050;17.018;2023-05-18T01:02:25;7.00;;;2.60;;
78968;SDS011;68369;51.050;17.018;2023-05-18T01:05:14;9.50;;;2.90;;
78968;SDS011;68369;51.050;17.018;2023-05-18T01:08:02;7.60;;;2.70;;
78968;SDS011;68369;51.050;17.018;2023-05-18T01:11:11;6.30;;;2.20;;
78968;SDS011;68369;51.050;17.018;2023-05-18T01:17:45;5.90;;;2.40;;
78968;SDS011;68369;51.050;17.018;2023-05-18T01:26:52;7.50;;;2.40;;
78968;SDS011;68369;51.050;17.018;2023-05-18T01:29:44;11.10;;;3.10;;
78968;SDS011;68369;51.050;17.018;2023-05-18T01:32:39;12.30;;;3.00;;
78968;SDS011;68369;51.050;17.018;2023-05-18T01:35:28;6.30;;;2.60;;
78968;SDS011;68369;51.050;17.018;2023-05-18T01:38:20;8.80;;;2.50;;
78968;SDS011;68369;51.050;17.018;2023-05-18T01:41:23;9.00;;;2.80;;
78968;SDS011;68369;51.050;17.018;2023-05-18T01:50:03;4.10;;;2.00;;
78968;SDS011;68369;51.050;17.018;2023-05-18T01:53:03;7.50;;;2.10;;
78968;SDS011;68369;51.050;17.018;2023-05-18T01:55:57;10.20;;;2.00;;
78968;SDS011;68369;51.050;17.018;2023-05-18T01:58:47;8.00;;;2.30;;
78968;SDS011;68369;51.050;17.018;2023-05-18T02:01:38;9.40;;;2.50;;
78968;SDS011;68369;51.050;17.018;2023-05-18T02:04:23;7.30;;;2.10;;
78968;SDS011;68369;51.050;17.018;2023-05-18T02:07:11;10.90;;;2.10;;
78968;SDS011;68369;51.050;17.018;2023-05-18T02:09:57;6.30;;;2.00;;
78968;SDS011;68369;51.050;17.018;2023-05-18T02:12:42;5.80;;;2.30;;
78968;SDS011;68369;51.050;17.018;2023-05-18T02:15:28;8.00;;;2.20;;
78968;SDS011;68369;51.050;17.018;2023-05-18T02:18:14;8.50;;;2.60;;
78968;SDS011;68369;51.050;17.018;2023-05-18T02:21:00;11.00;;;2.50;;
78968;SDS011;68369;51.050;17.018;2023-05-18T02:23:54;6.20;;;2.30;;
78968;SDS011;68369;51.050;17.018;2023-05-18T02:26:41;6.30;;;2.50;;
78968;SDS011;68369;51.050;17.018;2023-05-18T02:29:29;5.70;;;1.80;;
78968;SDS011;68369;51.050;17.018;2023-05-18T02:32:18;8.90;;;2.10;;
78968;SDS011;68369;51.050;17.018;2023-05-18T02:35:23;7.50;;;2.40;;
78968;SDS011;68369;51.050;17.018;2023-05-18T02:38:09;5.50;;;1.30;;
78968;SDS011;68369;51.050;17.018;2023-05-18T02:40:55;6.80;;;2.10;;
78968;SDS011;68369;51.050;17.018;2023-05-18T02:43:40;6.70;;;1.90;;
78968;SDS011;68369;51.050;17.018;2023-05-18T02:46:26;5.00;;;1.50;;
78968;SDS011;68369;51.050;17.018;2023-05-18T02:49:12;4.70;;;1.60;;
78968;SDS011;68369;51.050;17.018;2023-05-18T02:51:58;4.00;;;1.40;;
78968;SDS011;68369;51.050;17.018;2023-05-18T02:54:43;10.80;;;2.00;;
78968;SDS011;68369;51.050;17.018;2023-05-18T02:57:30;7.20;;;2.10;;
78968;SDS011;68369;51.050;17.018;2023-05-18T03:00:18;7.90;;;2.50;;
78968;SDS011;68369;51.050;17.018;2023-05-18T03:03:05;5.80;;;1.70;;
78968;SDS011;68369;51.050;17.018;2023-05-18T03:05:54;5.70;;;1.80;;
78968;SDS011;68369;51.050;17.018;2023-05-18T03:08:40;9.40;;;2.10;;
78968;SDS011;68369;51.050;17.018;2023-05-18T03:11:28;5.20;;;1.80;;
78968;SDS011;68369;51.050;17.018;2023-05-18T03:14:14;4.90;;;1.50;;
78968;SDS011;68369;51.050;17.018;2023-05-18T03:17:02;6.00;;;1.30;;
78968;SDS011;68369;51.050;17.018;2023-05-18T03:19:50;4.70;;;1.60;;
78968;SDS011;68369;51.050;17.018;2023-05-18T03:22:38;5.70;;;1.60;;
78968;SDS011;68369;51.050;17.018;2023-05-18T03:25:23;4.00;;;1.50;;
78968;SDS011;68369;51.050;17.018;2023-05-18T03:28:14;4.90;;;1.40;;
78968;SDS011;68369;51.050;17.018;2023-05-18T03:30:59;3.70;;;1.20;;
78968;SDS011;68369;51.050;17.018;2023-05-18T03:34:22;6.30;;;1.80;;
78968;SDS011;68369;51.050;17.018;2023-05-18T03:37:10;5.30;;;1.30;;
78968;SDS011;68369;51.050;17.018;2023-05-18T03:40:06;8.50;;;1.60;;
78968;SDS011;68369;51.050;17.018;2023-05-18T03:42:57;8.80;;;2.10;;
78968;SDS011;68369;51.050;17.018;2023-05-18T03:45:44;5.20;;;1.40;;
78968;SDS011;68369;51.050;17.018;2023-05-18T03:48:29;4.20;;;1.30;;
78968;SDS011;68369;51.050;17.018;2023-05-18T03:51:15;4.50;;;1.20;;
78968;SDS011;68369;51.050;17.018;2023-05-18T03:54:00;4.20;;;1.10;;
78968;SDS011;68369;51.050;17.018;2023-05-18T03:56:46;5.90;;;1.00;;
78968;SDS011;68369;51.050;17.018;2023-05-18T03:59:32;4.20;;;1.10;;
78968;SDS011;68369;51.050;17.018;2023-05-18T04:02:18;5.50;;;1.10;;
78968;SDS011;68369;51.050;17.018;2023-05-18T04:05:04;3.90;;;1.20;;
78968;SDS011;68369;51.050;17.018;2023-05-18T04:07:52;4.80;;;1.10;;
78968;SDS011;68369;51.050;17.018;2023-05-18T04:10:43;6.10;;;1.40;;
78968;SDS011;68369;51.050;17.018;2023-05-18T04:13:29;5.10;;;1.30;;
78968;SDS011;68369;51.050;17.018;2023-05-18T04:16:14;3.30;;;1.30;;
78968;SDS011;68369;51.050;17.018;2023-05-18T04:19:00;6.90;;;1.30;;
78968;SDS011;68369;51.050;17.018;2023-05-18T04:21:55;6.80;;;1.10;;
78968;SDS011;68369;51.050;17.018;2023-05-18T04:24:40;4.10;;;1.20;;
78968;SDS011;68369;51.050;17.018;2023-05-18T04:27:26;6.50;;;1.40;;
78968;SDS011;68369;51.050;17.018;2023-05-18T04:30:13;6.40;;;1.60;;
78968;SDS011;68369;51.050;17.018;2023-05-18T04:32:59;4.70;;;1.40;;
78968;SDS011;68369;51.050;17.018;2023-05-18T04:35:46;6.60;;;1.40;;
78968;SDS011;68369;51.050;17.018;2023-05-18T04:38:32;7.30;;;1.70;;
78968;SDS011;68369;51.050;17.018;2023-05-18T04:41:18;6.30;;;1.20;;
78968;SDS011;68369;51.050;17.018;2023-05-18T04:44:07;3.40;;;1.20;;
78968;SDS011;68369;51.050;17.018;2023-05-18T04:46:54;5.60;;;1.10;;
78968;SDS011;68369;51.050;17.018;2023-05-18T04:49:41;5.40;;;1.50;;
78968;SDS011;68369;51.050;17.018;2023-05-18T04:52:27;5.90;;;1.70;;
78968;SDS011;68369;51.050;17.018;2023-05-18T04:55:18;4.00;;;1.00;;
78968;SDS011;68369;51.050;17.018;2023-05-18T04:58:11;10.10;;;1.60;;
78968;SDS011;68369;51.050;17.018;2023-05-18T05:00:57;6.90;;;1.40;;
78968;SDS011;68369;51.050;17.018;2023-05-18T05:03:43;9.40;;;1.40;;
78968;SDS011;68369;51.050;17.018;2023-05-18T05:06:29;6.60;;;1.40;;
78968;SDS011;68369;51.050;17.018;2023-05-18T05:09:16;5.80;;;1.30;;
78968;SDS011;68369;51.050;17.018;2023-05-18T05:12:02;6.80;;;1.60;;
78968;SDS011;68369;51.050;17.018;2023-05-18T05:14:48;5.80;;;1.30;;
78968;SDS011;68369;51.050;17.018;2023-05-18T05:17:34;4.00;;;1.50;;
78968;SDS011;68369;51.050;17.018;2023-05-18T05:20:20;5.70;;;1.30;;
78968;SDS011;68369;51.050;17.018;2023-05-18T05:23:07;7.80;;;1.50;;
78968;SDS011;68369;51.050;17.018;2023-05-18T05:25:52;6.40;;;1.50;;
78968;SDS011;68369;51.050;17.018;2023-05-18T05:28:37;4.80;;;1.30;;
78968;SDS011;68369;51.050;17.018;2023-05-18T05:31:23;6.30;;;1.70;;
78968;SDS011;68369;51.050;17.018;2023-05-18T05:34:08;5.70;;;1.30;;
78968;SDS011;68369;51.050;17.018;2023-05-18T05:36:58;8.70;;;2.30;;
78968;SDS011;68369;51.050;17.018;2023-05-18T05:39:44;5.20;;;1.20;;
78968;SDS011;68369;51.050;17.018;2023-05-18T05:42:30;7.10;;;1.30;;
78968;SDS011;68369;51.050;17.018;2023-05-18T05:45:16;5.10;;;0.80;;
78968;SDS011;68369;51.050;17.018;2023-05-18T05:48:03;5.30;;;1.30;;
78968;SDS011;68369;51.050;17.018;2023-05-18T05:50:49;7.40;;;2.40;;
78968;SDS011;68369;51.050;17.018;2023-05-18T05:53:35;6.20;;;1.50;;
78968;SDS011;68369;51.050;17.018;2023-05-18T05:56:20;4.10;;;1.70;;
78968;SDS011;68369;51.050;17.018;2023-05-18T05:59:07;6.50;;;1.60;;
78968;SDS011;68369;51.050;17.018;2023-05-18T06:01:53;3.90;;;1.70;;
78968;SDS011;68369;51.050;17.018;2023-05-18T06:04:39;5.80;;;1.60;;
78968;SDS011;68369;51.050;17.018;2023-05-18T06:07:25;5.20;;;1.20;;
78968;SDS011;68369;51.050;17.018;2023-05-18T06:10:10;6.90;;;1.60;;
78968;SDS011;68369;51.050;17.018;2023-05-18T06:12:56;5.50;;;1.40;;
78968;SDS011;68369;51.050;17.018;2023-05-18T06:15:41;4.70;;;1.30;;
78968;SDS011;68369;51.050;17.018;2023-05-18T06:18:27;4.60;;;1.20;;
78968;SDS011;68369;51.050;17.018;2023-05-18T06:21:13;6.90;;;1.30;;
78968;SDS011;68369;51.050;17.018;2023-05-18T06:24:01;8.20;;;1.00;;
78968;SDS011;68369;51.050;17.018;2023-05-18T06:26:49;5.20;;;0.90;;
78968;SDS011;68369;51.050;17.018;2023-05-18T06:29:35;10.60;;;1.60;;
78968;SDS011;68369;51.050;17.018;2023-05-18T06:32:23;6.40;;;0.90;;
78968;SDS011;68369;51.050;17.018;2023-05-18T06:35:08;3.80;;;1.00;;
78968;SDS011;68369;51.050;17.018;2023-05-18T06:37:55;4.20;;;0.90;;
78968;SDS011;68369;51.050;17.018;2023-05-18T06:40:41;6.00;;;0.90;;
78968;SDS011;68369;51.050;17.018;2023-05-18T06:43:27;6.10;;;1.70;;
78968;SDS011;68369;51.050;17.018;2023-05-18T06:46:20;6.40;;;1.00;;
78968;SDS011;68369;51.050;17.018;2023-05-18T06:49:08;5.40;;;1.10;;
78968;SDS011;68369;51.050;17.018;2023-05-18T06:51:53;3.70;;;1.10;;
78968;SDS011;68369;51.050;17.018;2023-05-18T06:54:39;3.00;;;0.70;;
78968;SDS011;68369;51.050;17.018;2023-05-18T06:57:27;6.80;;;1.30;;
78968;SDS011;68369;51.050;17.018;2023-05-18T07:00:15;5.00;;;1.00;;
78968;SDS011;68369;51.050;17.018;2023-05-18T07:03:06;3.30;;;0.70;;
78968;SDS011;68369;51.050;17.018;2023-05-18T07:05:53;4.90;;;1.20;;
78968;SDS011;68369;51.050;17.018;2023-05-18T07:08:39;6.00;;;0.90;;
78968;SDS011;68369;51.050;17.018;2023-05-18T07:11:25;5.40;;;1.40;;
78968;SDS011;68369;51.050;17.018;2023-05-18T07:14:14;3.80;;;0.60;;
78968;SDS011;68369;51.050;17.018;2023-05-18T07:17:00;4.00;;;1.00;;
78968;SDS011;68369;51.050;17.018;2023-05-18T07:19:46;6.40;;;2.40;;
78968;SDS011;68369;51.050;17.018;2023-05-18T07:22:31;8.10;;;1.60;;
78968;SDS011;68369;51.050;17.018;2023-05-18T07:25:21;4.80;;;1.30;;
78968;SDS011;68369;51.050;17.018;2023-05-18T07:28:08;4.90;;;0.60;;
78968;SDS011;68369;51.050;17.018;2023-05-18T07:30:54;3.30;;;0.80;;
78968;SDS011;68369;51.050;17.018;2023-05-18T07:33:40;3.90;;;0.60;;
78968;SDS011;68369;51.050;17.018;2023-05-18T07:36:31;4.40;;;0.70;;
78968;SDS011;68369;51.050;17.018;2023-05-18T07:39:20;4.20;;;0.90;;
78968;SDS011;68369;51.050;17.018;2023-05-18T07:42:14;4.20;;;1.20;;
78968;SDS011;68369;51.050;17.018;2023-05-18T07:44:59;5.40;;;0.90;;
78968;SDS011;68369;51.050;17.018;2023-05-18T07:47:45;4.90;;;1.00;;
78968;SDS011;68369;51.050;17.018;2023-05-18T07:50:31;5.00;;;0.70;;
78968;SDS011;68369;51.050;17.018;2023-05-18T07:53:16;5.20;;;0.80;;
78968;SDS011;68369;51.050;17.018;2023-05-18T07:56:05;9.50;;;1.10;;
78968;SDS011;68369;51.050;17.018;2023-05-18T07:58:59;6.30;;;1.20;;
78968;SDS011;68369;51.050;17.018;2023-05-18T08:01:44;2.90;;;0.90;;
78968;SDS011;68369;51.050;17.018;2023-05-18T08:04:31;7.50;;;1.20;;
78968;SDS011;68369;51.050;17.018;2023-05-18T08:07:17;5.80;;;0.90;;
78968;SDS011;68369;51.050;17.018;2023-05-18T08:43:21;4.00;;;0.80;;
78968;SDS011;68369;51.050;17.018;2023-05-18T08:49:08;2.60;;;0.80;;
78968;SDS011;68369;51.050;17.018;2023-05-18T09:26:07;3.70;;;1.10;;
78968;SDS011;68369;51.050;17.018;2023-05-18T09:49:10;4.10;;;1.10;;
78968;SDS011;68369;51.050;17.018;2023-05-18T09:55:13;4.80;;;0.90;;
78968;SDS011;68369;51.050;17.018;2023-05-18T10:00:50;4.40;;;0.80;;
78968;SDS011;68369;51.050;17.018;2023-05-18T10:03:38;3.20;;;0.90;;
78968;SDS011;68369;51.050;17.018;2023-05-18T10:06:26;4.20;;;1.30;;
78968;SDS011;68369;51.050;17.018;2023-05-18T10:12:17;5.80;;;1.10;;
78968;SDS011;68369;51.050;17.018;2023-05-18T10:15:08;4.70;;;1.10;;
78968;SDS011;68369;51.050;17.018;2023-05-18T10:21:15;2.90;;;0.60;;
78968;SDS011;68369;51.050;17.018;2023-05-18T10:24:06;1.70;;;0.60;;
78968;SDS011;68369;51.050;17.018;2023-05-18T10:27:00;3.30;;;0.80;;
78968;SDS011;68369;51.050;17.018;2023-05-18T11:50:34;3.20;;;0.70;;
78968;SDS011;68369;51.050;17.018;2023-05-18T11:56:23;0.80;;;0.40;;
78968;SDS011;68369;51.050;17.018;2023-05-18T11:59:27;1.50;;;0.60;;
78968;SDS011;68369;51.050;17.018;2023-05-18T12:02:31;3.00;;;0.40;;
78968;SDS011;68369;51.050;17.018;2023-05-18T12:12:03;1.60;;;0.40;;
78968;SDS011;68369;51.050;17.018;2023-05-18T12:14:54;2.20;;;0.40;;
78968;SDS011;68369;51.050;17.018;2023-05-18T12:20:32;2.00;;;0.40;;
78968;SDS011;68369;51.050;17.018;2023-05-18T12:23:21;1.80;;;0.50;;
78968;SDS011;68369;51.050;17.018;2023-05-18T12:26:22;1.70;;;0.60;;
78968;SDS011;68369;51.050;17.018;2023-05-18T12:29:10;1.90;;;0.50;;
78968;SDS011;68369;51.050;17.018;2023-05-18T12:31:56;1.10;;;0.30;;
78968;SDS011;68369;51.050;17.018;2023-05-18T12:34:42;1.70;;;0.70;;
78968;SDS011;68369;51.050;17.018;2023-05-18T12:37:28;1.90;;;0.50;;
78968;SDS011;68369;51.050;17.018;2023-05-18T12:40:34;2.60;;;0.50;;
78968;SDS011;68369;51.050;17.018;2023-05-18T12:43:33;1.20;;;0.70;;
78968;SDS011;68369;51.050;17.018;2023-05-18T12:46:23;2.70;;;0.40;;
78968;SDS011;68369;51.050;17.018;2023-05-18T12:49:08;1.50;;;0.60;;
78968;SDS011;68369;51.050;17.018;2023-05-18T12:51:54;1.50;;;0.70;;
78968;SDS011;68369;51.050;17.018;2023-05-18T12:55:14;2.90;;;0.50;;
78968;SDS011;68369;51.050;17.018;2023-05-18T12:58:14;1.90;;;0.50;;
78968;SDS011;68369;51.050;17.018;2023-05-18T13:01:11;3.20;;;0.60;;
78968;SDS011;68369;51.050;17.018;2023-05-18T13:03:57;2.10;;;0.70;;
78968;SDS011;68369;51.050;17.018;2023-05-18T13:07:02;1.60;;;0.60;;
78968;SDS011;68369;51.050;17.018;2023-05-18T13:09:48;1.30;;;0.50;;
78968;SDS011;68369;51.050;17.018;2023-05-18T13:12:37;1.00;;;0.50;;
78968;SDS011;68369;51.050;17.018;2023-05-18T13:15:35;2.10;;;0.60;;
78968;SDS011;68369;51.050;17.018;2023-05-18T13:18:23;1.10;;;0.30;;
78968;SDS011;68369;51.050;17.018;2023-05-18T13:21:11;3.10;;;0.60;;
78968;SDS011;68369;51.050;17.018;2023-05-18T13:23:56;1.80;;;0.40;;
78968;SDS011;68369;51.050;17.018;2023-05-18T13:26:42;0.90;;;0.40;;
78968;SDS011;68369;51.050;17.018;2023-05-18T13:29:27;1.90;;;0.40;;
78968;SDS011;68369;51.050;17.018;2023-05-18T13:32:13;3.30;;;0.40;;
78968;SDS011;68369;51.050;17.018;2023-05-18T13:34:58;1.20;;;0.50;;
78968;SDS011;68369;51.050;17.018;2023-05-18T13:37:44;1.40;;;0.50;;
78968;SDS011;68369;51.050;17.018;2023-05-18T13:40:33;1.80;;;0.40;;
78968;SDS011;68369;51.050;17.018;2023-05-18T13:43:18;2.40;;;0.60;;
78968;SDS011;68369;51.050;17.018;2023-05-18T13:46:03;1.90;;;0.70;;
78968;SDS011;68369;51.050;17.018;2023-05-18T13:48:53;3.80;;;0.60;;
78968;SDS011;68369;51.050;17.018;2023-05-18T13:51:38;1.90;;;0.40;;
78968;SDS011;68369;51.050;17.018;2023-05-18T13:54:23;0.60;;;0.40;;
78968;SDS011;68369;51.050;17.018;2023-05-18T13:57:08;3.20;;;0.50;;
78968;SDS011;68369;51.050;17.018;2023-05-18T13:59:54;4.80;;;0.70;;
78968;SDS011;68369;51.050;17.018;2023-05-18T14:02:43;2.80;;;0.60;;
78968;SDS011;68369;51.050;17.018;2023-05-18T14:05:32;1.70;;;0.70;;
78968;SDS011;68369;51.050;17.018;2023-05-18T14:08:18;2.60;;;0.50;;
78968;SDS011;68369;51.050;17.018;2023-05-18T14:11:03;2.80;;;0.60;;
78968;SDS011;68369;51.050;17.018;2023-05-18T14:13:48;3.80;;;0.50;;
78968;SDS011;68369;51.050;17.018;2023-05-18T14:16:34;2.30;;;0.60;;
78968;SDS011;68369;51.050;17.018;2023-05-18T14:19:21;1.60;;;0.60;;
78968;SDS011;68369;51.050;17.018;2023-05-18T14:22:07;2.80;;;0.50;;
78968;SDS011;68369;51.050;17.018;2023-05-18T14:24:52;1.10;;;0.50;;
78968;SDS011;68369;51.050;17.018;2023-05-18T14:27:37;3.20;;;0.70;;
78968;SDS011;68369;51.050;17.018;2023-05-18T14:30:23;1.60;;;0.50;;
78968;SDS011;68369;51.050;17.018;2023-05-18T14:33:09;1.40;;;0.50;;
78968;SDS011;68369;51.050;17.018;2023-05-18T15:28:07;2.40;;;0.60;;
78968;SDS011;68369;51.050;17.018;2023-05-18T15:37:26;1.60;;;0.50;;
78968;SDS011;68369;51.050;17.018;2023-05-18T15:40:11;2.50;;;0.50;;
78968;SDS011;68369;51.050;17.018;2023-05-18T15:42:57;1.50;;;0.70;;
78968;SDS011;68369;51.050;17.018;2023-05-18T15:45:43;1.50;;;0.70;;
78968;SDS011;68369;51.050;17.018;2023-05-18T15:48:29;1.90;;;0.50;;
78968;SDS011;68369;51.050;17.018;2023-05-18T15:51:16;2.30;;;0.70;;
78968;SDS011;68369;51.050;17.018;2023-05-18T15:54:01;1.40;;;0.70;;
78968;SDS011;68369;51.050;17.018;2023-05-18T15:56:48;1.20;;;0.60;;
78968;SDS011;68369;51.050;17.018;2023-05-18T15:59:34;2.70;;;0.70;;
78968;SDS011;68369;51.050;17.018;2023-05-18T16:08:45;2.70;;;0.70;;
78968;SDS011;68369;51.050;17.018;2023-05-18T16:11:31;2.00;;;1.30;;
78968;SDS011;68369;51.050;17.018;2023-05-18T16:14:21;3.60;;;0.80;;
78968;SDS011;68369;51.050;17.018;2023-05-18T16:17:06;2.60;;;0.80;;
78968;SDS011;68369;51.050;17.018;2023-05-18T16:19:53;1.00;;;0.40;;
78968;SDS011;68369;51.050;17.018;2023-05-18T16:22:38;1.60;;;0.50;;
78968;SDS011;68369;51.050;17.018;2023-05-18T16:25:24;2.10;;;0.60;;
78968;SDS011;68369;51.050;17.018;2023-05-18T16:28:13;2.30;;;0.60;;
78968;SDS011;68369;51.050;17.018;2023-05-18T16:31:01;2.10;;;0.60;;
78968;SDS011;68369;51.050;17.018;2023-05-18T16:36:24;2.20;;;1.10;;
78968;SDS011;68369;51.050;17.018;2023-05-18T16:39:11;0.80;;;0.40;;
78968;SDS011;68369;51.050;17.018;2023-05-18T16:41:57;1.10;;;0.70;;
78968;SDS011;68369;51.050;17.018;2023-05-18T16:44:42;1.50;;;0.60;;
78968;SDS011;68369;51.050;17.018;2023-05-18T16:47:28;1.70;;;0.60;;
78968;SDS011;68369;51.050;17.018;2023-05-18T16:50:18;1.70;;;0.40;;
78968;SDS011;68369;51.050;17.018;2023-05-18T16:53:04;0.70;;;0.30;;
78968;SDS011;68369;51.050;17.018;2023-05-18T16:58:29;1.00;;;0.50;;
78968;SDS011;68369;51.050;17.018;2023-05-18T17:01:21;2.60;;;0.50;;
78968;SDS011;68369;51.050;17.018;2023-05-18T17:04:15;2.80;;;0.70;;
78968;SDS011;68369;51.050;17.018;2023-05-18T17:07:01;1.30;;;0.60;;
78968;SDS011;68369;51.050;17.018;2023-05-18T17:09:47;2.30;;;0.50;;
78968;SDS011;68369;51.050;17.018;2023-05-18T17:12:33;2.00;;;0.70;;
78968;SDS011;68369;51.050;17.018;2023-05-18T17:15:21;3.60;;;0.90;;
78968;SDS011;68369;51.050;17.018;2023-05-18T17:17:57;2.00;;;0.50;;
78968;SDS011;68369;51.050;17.018;2023-05-18T17:20:45;2.40;;;0.60;;
78968;SDS011;68369;51.050;17.018;2023-05-18T17:23:31;2.50;;;0.70;;
78968;SDS011;68369;51.050;17.018;2023-05-18T17:26:16;2.40;;;0.50;;
78968;SDS011;68369;51.050;17.018;2023-05-18T17:29:02;1.20;;;0.60;;
78968;SDS011;68369;51.050;17.018;2023-05-18T17:31:49;4.00;;;1.40;;
78968;SDS011;68369;51.050;17.018;2023-05-18T17:34:37;2.80;;;0.90;;
78968;SDS011;68369;51.050;17.018;2023-05-18T17:37:25;2.30;;;0.70;;
78968;SDS011;68369;51.050;17.018;2023-05-18T17:40:13;3.60;;;0.70;;
78968;SDS011;68369;51.050;17.018;2023-05-18T17:42:58;2.70;;;0.70;;
78968;SDS011;68369;51.050;17.018;2023-05-18T17:45:44;7.50;;;0.60;;
78968;SDS011;68369;51.050;17.018;2023-05-18T17:48:30;3.00;;;0.90;;
78968;SDS011;68369;51.050;17.018;2023-05-18T18:04:23;2.90;;;0.60;;
78968;SDS011;68369;51.050;17.018;2023-05-18T18:07:11;1.30;;;0.60;;
78968;SDS011;68369;51.050;17.018;2023-05-18T18:09:56;1.90;;;0.60;;
78968;SDS011;68369;51.050;17.018;2023-05-18T18:12:42;1.70;;;0.60;;
78968;SDS011;68369;51.050;17.018;2023-05-18T18:15:30;2.90;;;0.60;;
78968;SDS011;68369;51.050;17.018;2023-05-18T18:18:16;3.80;;;0.60;;
78968;SDS011;68369;51.050;17.018;2023-05-18T18:21:02;3.00;;;0.80;;
78968;SDS011;68369;51.050;17.018;2023-05-18T18:27:07;1.60;;;0.70;;
78968;SDS011;68369;51.050;17.018;2023-05-18T18:29:55;2.50;;;1.40;;
78968;SDS011;68369;51.050;17.018;2023-05-18T18:35:44;2.30;;;0.80;;
78968;SDS011;68369;51.050;17.018;2023-05-18T18:38:34;2.20;;;1.10;;
78968;SDS011;68369;51.050;17.018;2023-05-18T18:44:35;4.10;;;0.80;;
78968;SDS011;68369;51.050;17.018;2023-05-18T18:47:21;3.60;;;0.90;;
78968;SDS011;68369;51.050;17.018;2023-05-18T18:50:07;2.50;;;0.80;;
78968;SDS011;68369;51.050;17.018;2023-05-18T18:52:53;3.10;;;0.80;;
78968;SDS011;68369;51.050;17.018;2023-05-18T18:55:39;1.60;;;0.80;;
78968;SDS011;68369;51.050;17.018;2023-05-18T18:58:25;2.50;;;0.80;;
78968;SDS011;68369;51.050;17.018;2023-05-18T19:01:11;2.40;;;0.80;;
78968;SDS011;68369;51.050;17.018;2023-05-18T19:03:57;1.80;;;0.70;;
78968;SDS011;68369;51.050;17.018;2023-05-18T19:06:42;1.50;;;0.80;;
78968;SDS011;68369;51.050;17.018;2023-05-18T19:09:28;2.90;;;0.70;;
78968;SDS011;68369;51.050;17.018;2023-05-18T19:12:20;2.90;;;1.00;;
78968;SDS011;68369;51.050;17.018;2023-05-18T19:15:10;2.60;;;1.10;;
78968;SDS011;68369;51.050;17.018;2023-05-18T19:17:59;3.00;;;0.90;;
78968;SDS011;68369;51.050;17.018;2023-05-18T19:20:45;2.90;;;0.90;;
78968;SDS011;68369;51.050;17.018;2023-05-18T19:23:32;2.60;;;1.00;;
78968;SDS011;68369;51.050;17.018;2023-05-18T19:26:18;2.80;;;1.00;;
78968;SDS011;68369;51.050;17.018;2023-05-18T19:29:03;3.90;;;1.00;;
78968;SDS011;68369;51.050;17.018;2023-05-18T19:31:53;2.80;;;1.20;;
78968;SDS011;68369;51.050;17.018;2023-05-18T19:34:42;2.80;;;1.00;;
78968;SDS011;68369;51.050;17.018;2023-05-18T19:37:27;1.40;;;0.70;;
78968;SDS011;68369;51.050;17.018;2023-05-18T19:40:13;3.50;;;0.90;;
78968;SDS011;68369;51.050;17.018;2023-05-18T19:43:00;2.70;;;1.00;;
78968;SDS011;68369;51.050;17.018;2023-05-18T19:45:46;2.20;;;0.70;;
78968;SDS011;68369;51.050;17.018;2023-05-18T19:48:38;2.20;;;0.80;;
78968;SDS011;68369;51.050;17.018;2023-05-18T19:51:24;2.80;;;1.10;;
78968;SDS011;68369;51.050;17.018;2023-05-18T19:54:10;1.90;;;0.90;;
78968;SDS011;68369;51.050;17.018;2023-05-18T19:56:56;1.90;;;0.90;;
78968;SDS011;68369;51.050;17.018;2023-05-18T19:59:42;2.60;;;0.90;;
78968;SDS011;68369;51.050;17.018;2023-05-18T20:02:28;2.60;;;1.00;;
78968;SDS011;68369;51.050;17.018;2023-05-18T20:05:17;2.50;;;1.00;;
78968;SDS011;68369;51.050;17.018;2023-05-18T20:08:04;4.20;;;0.90;;
78968;SDS011;68369;51.050;17.018;2023-05-18T20:10:53;4.30;;;1.30;;
78968;SDS011;68369;51.050;17.018;2023-05-18T20:13:40;3.90;;;1.10;;
78968;SDS011;68369;51.050;17.018;2023-05-18T20:16:31;4.20;;;1.40;;
78968;SDS011;68369;51.050;17.018;2023-05-18T20:19:19;5.00;;;1.50;;
78968;SDS011;68369;51.050;17.018;2023-05-18T20:22:07;3.00;;;1.10;;
78968;SDS011;68369;51.050;17.018;2023-05-18T20:25:02;5.00;;;1.40;;
78968;SDS011;68369;51.050;17.018;2023-05-18T20:27:49;3.60;;;1.40;;
78968;SDS011;68369;51.050;17.018;2023-05-18T20:30:56;3.90;;;1.60;;
78968;SDS011;68369;51.050;17.018;2023-05-18T20:33:48;6.10;;;1.70;;
78968;SDS011;68369;51.050;17.018;2023-05-18T20:36:34;3.30;;;1.50;;
78968;SDS011;68369;51.050;17.018;2023-05-18T20:39:20;4.10;;;1.40;;
78968;SDS011;68369;51.050;17.018;2023-05-18T20:42:09;3.00;;;1.40;;
78968;SDS011;68369;51.050;17.018;2023-05-18T20:45:07;3.60;;;1.20;;
78968;SDS011;68369;51.050;17.018;2023-05-18T20:47:58;2.70;;;1.10;;
78968;SDS011;68369;51.050;17.018;2023-05-18T20:50:45;3.50;;;1.40;;
78968;SDS011;68369;51.050;17.018;2023-05-18T20:53:31;4.60;;;1.50;;
78968;SDS011;68369;51.050;17.018;2023-05-18T20:56:19;3.10;;;1.70;;
78968;SDS011;68369;51.050;17.018;2023-05-18T20:59:08;4.50;;;1.70;;
78968;SDS011;68369;51.050;17.018;2023-05-18T21:01:59;4.60;;;1.70;;
78968;SDS011;68369;51.050;17.018;2023-05-18T21:04:45;3.00;;;1.50;;
78968;SDS011;68369;51.050;17.018;2023-05-18T21:07:32;5.50;;;1.80;;
78968;SDS011;68369;51.050;17.018;2023-05-18T21:10:26;4.20;;;1.80;;
78968;SDS011;68369;51.050;17.018;2023-05-18T21:13:11;4.10;;;1.80;;
78968;SDS011;68369;51.050;17.018;2023-05-18T21:15:57;3.90;;;1.40;;
78968;SDS011;68369;51.050;17.018;2023-05-18T21:18:43;4.20;;;1.80;;
78968;SDS011;68369;51.050;17.018;2023-05-18T21:21:29;4.50;;;1.70;;
78968;SDS011;68369;51.050;17.018;2023-05-18T21:24:18;5.40;;;1.50;;
78968;SDS011;68369;51.050;17.018;2023-05-18T21:27:04;3.80;;;2.20;;
78968;SDS011;68369;51.050;17.018;2023-05-18T21:29:50;4.70;;;1.20;;
78968;SDS011;68369;51.050;17.018;2023-05-18T21:32:36;2.80;;;1.40;;
78968;SDS011;68369;51.050;17.018;2023-05-18T21:35:23;2.20;;;1.50;;
78968;SDS011;68369;51.050;17.018;2023-05-18T21:38:09;4.00;;;1.90;;
78968;SDS011;68369;51.050;17.018;2023-05-18T21:40:56;4.20;;;1.80;;
78968;SDS011;68369;51.050;17.018;2023-05-18T21:43:43;5.00;;;1.50;;